createdAt,value
2017-06-20T00:00:22.329Z,969.08
2017-06-20T00:01:22.332Z,969.07
2017-06-20T00:02:22.329Z,969.05
2017-06-20T00:03:22.327Z,969.07
2017-06-20T00:04:22.329Z,969.08
2017-06-20T00:05:22.329Z,969.08
2017-06-20T00:06:22.326Z,969.06
2017-06-20T00:07:22.324Z,969.08
2017-06-20T00:08:22.325Z,969.1
2017-06-20T00:09:22.324Z,969.09
2017-06-20T00:10:22.322Z,969.09
2017-06-20T00:11:22.322Z,969.08
2017-06-20T00:12:22.322Z,969.1
2017-06-20T00:13:22.321Z,969.11
2017-06-20T00:14:22.321Z,969.1
2017-06-20T00:15:22.319Z,969.12
2017-06-20T00:16:22.317Z,969.06
2017-06-20T00:17:22.318Z,969.1
2017-06-20T00:18:22.317Z,969.08
2017-06-20T00:19:22.315Z,969.09
2017-06-20T00:20:22.316Z,969.1
2017-06-20T00:21:22.315Z,969.1
2017-06-20T00:22:22.313Z,969.14
2017-06-20T00:23:22.313Z,969.08
2017-06-20T00:24:22.313Z,969.12
2017-06-20T00:25:22.312Z,969.11
2017-06-20T00:26:22.311Z,969.11
2017-06-20T00:27:22.309Z,969.1
2017-06-20T00:28:22.311Z,969.08
2017-06-20T00:29:22.309Z,969.07
2017-06-20T00:30:22.307Z,969.14
2017-06-20T00:31:22.306Z,969.1
2017-06-20T00:32:22.305Z,969.12
2017-06-20T00:33:22.304Z,969.12
2017-06-20T00:34:22.303Z,969.14
2017-06-20T00:35:22.303Z,969.1
2017-06-20T00:36:22.302Z,969.12
2017-06-20T00:37:22.302Z,969.13
2017-06-20T00:38:22.300Z,969.15
2017-06-20T00:39:22.300Z,969.12
2017-06-20T00:40:22.298Z,969.18
2017-06-20T00:41:22.300Z,969.15
2017-06-20T00:42:22.297Z,969.11
2017-06-20T00:43:22.297Z,969.1
2017-06-20T00:44:22.295Z,969.07
2017-06-20T00:45:22.296Z,969.12
2017-06-20T00:46:22.295Z,969.08
2017-06-20T00:47:22.293Z,969.06
2017-06-20T00:48:22.291Z,969.09
2017-06-20T00:49:22.291Z,969.07
2017-06-20T00:50:22.290Z,969.09
2017-06-20T00:51:22.289Z,969.1
2017-06-20T00:52:22.289Z,969.07
2017-06-20T00:53:22.288Z,969.06
2017-06-20T00:54:22.287Z,969.1
2017-06-20T00:55:22.286Z,969.1
2017-06-20T00:56:22.286Z,969.08
2017-06-20T00:57:22.287Z,969.07
2017-06-20T00:58:22.284Z,969.07
2017-06-20T00:59:22.284Z,969.06
2017-06-20T01:00:22.284Z,969.06
2017-06-20T01:01:22.284Z,969.02
2017-06-20T01:02:22.281Z,969.05
2017-06-20T01:03:22.283Z,969.01
2017-06-20T01:04:22.279Z,969.07
2017-06-20T01:05:22.277Z,969.03
2017-06-20T01:06:22.278Z,969
2017-06-20T01:07:22.278Z,969.01
2017-06-20T01:08:22.275Z,969.04
2017-06-20T01:09:22.276Z,969
2017-06-20T01:10:22.273Z,969.08
2017-06-20T01:11:22.273Z,969.01
2017-06-20T01:12:22.272Z,969.02
2017-06-20T01:13:22.271Z,969
2017-06-20T01:14:22.271Z,969.01
2017-06-20T01:15:22.269Z,969.02
2017-06-20T01:16:22.270Z,969.04
2017-06-20T01:17:22.268Z,969.03
2017-06-20T01:18:22.268Z,969.04
2017-06-20T01:19:22.266Z,969.02
2017-06-20T01:20:22.264Z,969.03
2017-06-20T01:21:22.265Z,969.03
2017-06-20T01:22:22.265Z,969.01
2017-06-20T01:23:22.264Z,969.06
2017-06-20T01:24:22.264Z,969.01
2017-06-20T01:25:22.263Z,968.98
2017-06-20T01:26:22.263Z,968.97
2017-06-20T01:27:22.261Z,968.97
2017-06-20T01:28:22.260Z,968.97
2017-06-20T01:29:22.258Z,968.96
2017-06-20T01:30:22.258Z,968.98
2017-06-20T01:31:22.257Z,968.95
2017-06-20T01:32:22.255Z,969
2017-06-20T01:33:22.254Z,968.97
2017-06-20T01:34:22.254Z,969
2017-06-20T01:35:22.254Z,968.96
2017-06-20T01:36:22.252Z,968.96
2017-06-20T01:37:22.252Z,968.97
2017-06-20T01:38:22.249Z,968.96
2017-06-20T01:39:22.253Z,968.98
2017-06-20T01:40:22.249Z,968.97
2017-06-20T01:41:22.250Z,968.99
2017-06-20T01:42:22.247Z,969.03
2017-06-20T01:43:22.248Z,969
2017-06-20T01:44:22.245Z,969.02
2017-06-20T01:45:22.243Z,969
2017-06-20T01:46:22.243Z,969.03
2017-06-20T01:47:22.244Z,969.06
2017-06-20T01:48:22.242Z,969.06
2017-06-20T01:49:22.240Z,969.06
2017-06-20T01:50:22.239Z,969.07
2017-06-20T01:51:22.239Z,969.1
2017-06-20T01:52:22.239Z,969.11
2017-06-20T01:53:22.236Z,969.07
2017-06-20T01:54:22.235Z,969.1
2017-06-20T01:55:22.236Z,969.07
2017-06-20T01:56:22.233Z,969.07
2017-06-20T01:57:22.234Z,969.06
2017-06-20T01:58:22.232Z,969.09
2017-06-20T01:59:22.230Z,969.04
2017-06-20T02:00:22.231Z,969.08
2017-06-20T02:01:22.229Z,969.04
2017-06-20T02:02:22.227Z,969.07
2017-06-20T02:03:22.228Z,969.07
2017-06-20T02:04:22.226Z,969.06
2017-06-20T02:05:22.226Z,969.07
2017-06-20T02:06:22.224Z,969.05
2017-06-20T02:07:22.224Z,969.07
2017-06-20T02:08:22.222Z,969.07
2017-06-20T02:09:22.221Z,969.08
2017-06-20T02:10:22.221Z,969.05
2017-06-20T02:11:22.220Z,969.08
2017-06-20T02:12:22.219Z,969.06
2017-06-20T02:13:22.218Z,969.06
2017-06-20T02:14:22.218Z,969.08
2017-06-20T02:15:22.216Z,969.04
2017-06-20T02:16:22.216Z,969.05
2017-06-20T02:17:22.214Z,969.01
2017-06-20T02:18:22.213Z,969.03
2017-06-20T02:19:22.211Z,969.07
2017-06-20T02:20:22.212Z,969.04
2017-06-20T02:21:22.209Z,969.02
2017-06-20T02:22:22.210Z,969
2017-06-20T02:23:22.208Z,969.02
2017-06-20T02:24:22.208Z,969.03
2017-06-20T02:25:22.207Z,969.03
2017-06-20T02:26:22.205Z,969.01
2017-06-20T02:27:22.205Z,969.01
2017-06-20T02:28:22.206Z,969.03
2017-06-20T02:29:22.206Z,969.05
2017-06-20T02:30:22.202Z,969.04
2017-06-20T02:31:22.199Z,969.06
2017-06-20T02:32:22.199Z,969.08
2017-06-20T02:33:22.197Z,969.05
2017-06-20T02:34:22.196Z,969.1
2017-06-20T02:35:22.196Z,969.1
2017-06-20T02:36:22.197Z,969.05
2017-06-20T02:37:22.195Z,969.09
2017-06-20T02:38:22.193Z,969.1
2017-06-20T02:39:22.193Z,969.07
2017-06-20T02:40:22.192Z,969.08
2017-06-20T02:41:22.190Z,969.13
2017-06-20T02:42:22.189Z,969.12
2017-06-20T02:43:22.189Z,969.12
2017-06-20T02:44:22.186Z,969.11
2017-06-20T02:45:22.186Z,969.11
2017-06-20T02:46:22.186Z,969.11
2017-06-20T02:47:22.184Z,969.12
2017-06-20T02:48:22.182Z,969.13
2017-06-20T02:49:22.182Z,969.12
2017-06-20T02:50:22.183Z,969.12
2017-06-20T02:51:22.182Z,969.16
2017-06-20T02:52:22.180Z,969.12
2017-06-20T02:53:22.182Z,969.18
2017-06-20T02:54:22.176Z,969.16
2017-06-20T02:55:22.176Z,969.17
2017-06-20T02:56:22.175Z,969.19
2017-06-20T02:57:22.174Z,969.21
2017-06-20T02:58:22.174Z,969.17
2017-06-20T02:59:22.204Z,969.19
2017-06-20T03:00:22.171Z,969.21
2017-06-20T03:01:22.171Z,969.24
2017-06-20T03:02:22.168Z,969.24
2017-06-20T03:03:22.169Z,969.21
2017-06-20T03:04:22.168Z,969.23
2017-06-20T03:05:22.169Z,969.23
2017-06-20T03:06:22.165Z,969.26
2017-06-20T03:07:22.165Z,969.23
2017-06-20T03:08:22.164Z,969.22
2017-06-20T03:09:22.163Z,969.25
2017-06-20T03:10:22.160Z,969.26
2017-06-20T03:11:22.161Z,969.24
2017-06-20T03:12:22.159Z,969.23
2017-06-20T03:13:22.157Z,969.19
2017-06-20T03:14:22.158Z,969.18
2017-06-20T03:15:22.157Z,969.21
2017-06-20T03:16:22.156Z,969.2
2017-06-20T03:17:22.155Z,969.21
2017-06-20T03:18:22.154Z,969.21
2017-06-20T03:19:22.153Z,969.18
2017-06-20T03:20:22.150Z,969.22
2017-06-20T03:21:22.149Z,969.28
2017-06-20T03:22:22.149Z,969.3
2017-06-20T03:23:22.147Z,969.27
2017-06-20T03:24:22.146Z,969.26
2017-06-20T03:25:22.146Z,969.28
2017-06-20T03:26:22.145Z,969.29
2017-06-20T03:27:22.144Z,969.26
2017-06-20T03:28:22.142Z,969.32
2017-06-20T03:29:22.142Z,969.29
2017-06-20T03:30:22.141Z,969.32
2017-06-20T03:31:22.140Z,969.31
2017-06-20T03:32:22.137Z,969.29
2017-06-20T03:33:22.137Z,969.35
2017-06-20T03:34:22.134Z,969.31
2017-06-20T03:35:22.134Z,969.31
2017-06-20T03:36:22.131Z,969.29
2017-06-20T03:37:22.133Z,969.31
2017-06-20T03:38:22.132Z,969.28
2017-06-20T03:39:22.131Z,969.28
2017-06-20T03:40:22.131Z,969.29
2017-06-20T03:41:22.129Z,969.3
2017-06-20T03:42:22.127Z,969.27
2017-06-20T03:43:22.127Z,969.28
2017-06-20T03:44:22.124Z,969.29
2017-06-20T03:45:22.124Z,969.31
2017-06-20T03:46:22.122Z,969.31
2017-06-20T03:47:22.123Z,969.32
2017-06-20T03:48:22.120Z,969.37
2017-06-20T03:49:22.121Z,969.34
2017-06-20T03:50:22.118Z,969.3
2017-06-20T03:51:22.118Z,969.32
2017-06-20T03:52:22.117Z,969.36
2017-06-20T03:53:22.115Z,969.36
2017-06-20T03:54:22.113Z,969.31
2017-06-20T03:55:22.114Z,969.38
2017-06-20T03:56:22.113Z,969.34
2017-06-20T03:57:22.110Z,969.37
2017-06-20T03:58:22.111Z,969.33
2017-06-20T03:59:22.111Z,969.36
2017-06-20T04:00:22.108Z,969.38
2017-06-20T04:01:22.107Z,969.38
2017-06-20T04:02:22.106Z,969.38
2017-06-20T04:03:22.104Z,969.37
2017-06-20T04:04:22.104Z,969.35
2017-06-20T04:05:22.103Z,969.36
2017-06-20T04:06:22.104Z,969.33
2017-06-20T04:07:22.101Z,969.32
2017-06-20T04:08:22.099Z,969.37
2017-06-20T04:09:22.102Z,969.35
2017-06-20T04:10:22.097Z,969.38
2017-06-20T04:11:22.097Z,969.38
2017-06-20T04:12:22.097Z,969.36
2017-06-20T04:13:22.097Z,969.39
2017-06-20T04:14:22.095Z,969.38
2017-06-20T04:15:22.098Z,969.37
2017-06-20T04:16:22.093Z,969.37
2017-06-20T04:17:22.092Z,969.41
2017-06-20T04:18:22.090Z,969.42
2017-06-20T04:19:22.091Z,969.44
2017-06-20T04:20:22.089Z,969.39
2017-06-20T04:21:22.089Z,969.43
2017-06-20T04:22:22.087Z,969.43
2017-06-20T04:23:22.087Z,969.42
2017-06-20T04:24:22.086Z,969.42
2017-06-20T04:25:22.084Z,969.42
2017-06-20T04:26:22.083Z,969.42
2017-06-20T04:27:22.084Z,969.44
2017-06-20T04:28:22.082Z,969.45
2017-06-20T04:29:22.080Z,969.44
2017-06-20T04:30:22.080Z,969.45
2017-06-20T04:31:22.081Z,969.48
2017-06-20T04:32:22.081Z,969.47
2017-06-20T04:33:22.080Z,969.49
2017-06-20T04:34:22.079Z,969.49
2017-06-20T04:35:22.079Z,969.51
2017-06-20T04:36:22.082Z,969.54
2017-06-20T04:37:22.078Z,969.56
2017-06-20T04:38:22.077Z,969.57
2017-06-20T04:39:22.078Z,969.57
2017-06-20T04:40:22.078Z,969.58
2017-06-20T04:41:22.076Z,969.56
2017-06-20T04:42:22.076Z,969.56
2017-06-20T04:43:22.077Z,969.61
2017-06-20T04:44:22.075Z,969.6
2017-06-20T04:45:22.076Z,969.63
2017-06-20T04:46:22.077Z,969.62
2017-06-20T04:47:22.077Z,969.66
2017-06-20T04:48:22.076Z,969.67
2017-06-20T04:49:22.074Z,969.66
2017-06-20T04:50:22.078Z,969.65
2017-06-20T04:51:22.076Z,969.68
2017-06-20T04:52:22.076Z,969.68
2017-06-20T04:53:22.077Z,969.7
2017-06-20T04:54:22.077Z,969.72
2017-06-20T04:55:22.075Z,969.7
2017-06-20T04:56:22.077Z,969.72
2017-06-20T04:57:22.076Z,969.7
2017-06-20T04:58:22.077Z,969.71
2017-06-20T04:59:22.077Z,969.66
2017-06-20T05:00:22.077Z,969.65
2017-06-20T05:01:22.078Z,969.71
2017-06-20T05:02:22.078Z,969.67
2017-06-20T05:03:22.078Z,969.67
2017-06-20T05:04:22.077Z,969.66
2017-06-20T05:05:22.078Z,969.62
2017-06-20T05:06:22.078Z,969.66
2017-06-20T05:07:22.080Z,969.64
2017-06-20T05:08:22.080Z,969.63
2017-06-20T05:09:22.080Z,969.62
2017-06-20T05:10:22.081Z,969.65
2017-06-20T05:11:22.082Z,969.67
2017-06-20T05:12:22.083Z,969.67
2017-06-20T05:13:22.084Z,969.69
2017-06-20T05:14:22.084Z,969.67
2017-06-20T05:15:22.089Z,969.69
2017-06-20T05:16:22.087Z,969.66
2017-06-20T05:17:22.086Z,969.68
2017-06-20T05:18:22.090Z,969.64
2017-06-20T05:19:22.091Z,969.69
2017-06-20T05:20:22.092Z,969.63
2017-06-20T05:21:22.094Z,969.7
2017-06-20T05:22:22.095Z,969.69
2017-06-20T05:23:22.096Z,969.72
2017-06-20T05:24:22.100Z,969.67
2017-06-20T05:25:22.101Z,969.65
2017-06-20T05:26:22.101Z,969.64
2017-06-20T05:27:22.106Z,969.66
2017-06-20T05:28:22.104Z,969.63
2017-06-20T05:29:22.106Z,969.63
2017-06-20T05:30:22.110Z,969.58
2017-06-20T05:31:22.113Z,969.58
2017-06-20T05:32:22.113Z,969.62
2017-06-20T05:33:22.115Z,969.58
2017-06-20T05:34:22.115Z,969.6
2017-06-20T05:35:22.120Z,969.6
2017-06-20T05:36:22.119Z,969.61
2017-06-20T05:37:22.123Z,969.59
2017-06-20T05:38:22.126Z,969.62
2017-06-20T05:39:22.128Z,969.59
2017-06-20T05:40:22.128Z,969.64
2017-06-20T05:41:22.132Z,969.59
2017-06-20T05:42:22.136Z,969.65
2017-06-20T05:43:22.137Z,969.64
2017-06-20T05:44:22.138Z,969.64
2017-06-20T05:45:22.142Z,969.63
2017-06-20T05:46:22.145Z,969.66
2017-06-20T05:47:22.148Z,969.69
2017-06-20T05:48:22.150Z,969.69
2017-06-20T05:49:22.153Z,969.7
2017-06-20T05:50:22.155Z,969.71
2017-06-20T05:51:22.157Z,969.69
2017-06-20T05:52:22.160Z,969.68
2017-06-20T05:53:22.164Z,969.7
2017-06-20T05:54:22.166Z,969.65
2017-06-20T05:55:22.170Z,969.65
2017-06-20T05:56:22.173Z,969.66
2017-06-20T05:57:22.177Z,969.71
2017-06-20T05:58:22.180Z,969.65
2017-06-20T05:59:22.183Z,969.69
2017-06-20T06:00:22.187Z,969.71
2017-06-20T06:01:22.191Z,969.72
2017-06-20T06:02:22.193Z,969.75
2017-06-20T06:03:22.198Z,969.7
2017-06-20T06:04:22.202Z,969.71
2017-06-20T06:05:22.204Z,969.65
2017-06-20T06:06:22.209Z,969.68
2017-06-20T06:07:22.213Z,969.7
2017-06-20T06:08:22.216Z,969.69
2017-06-20T06:09:22.220Z,969.71
2017-06-20T06:10:22.225Z,969.72
2017-06-20T06:11:22.229Z,969.75
2017-06-20T06:12:22.233Z,969.72
2017-06-20T06:13:22.237Z,969.73
2017-06-20T06:14:22.240Z,969.72
2017-06-20T06:15:22.247Z,969.74
2017-06-20T06:16:22.250Z,969.73
2017-06-20T06:17:22.254Z,969.74
2017-06-20T06:18:22.258Z,969.76
2017-06-20T06:19:22.262Z,969.73
2017-06-20T06:20:22.267Z,969.73
2017-06-20T06:21:22.272Z,969.7
2017-06-20T06:22:22.275Z,969.69
2017-06-20T06:23:22.281Z,969.66
2017-06-20T06:24:22.284Z,969.67
2017-06-20T06:25:22.289Z,969.65
2017-06-20T06:26:22.293Z,969.65
2017-06-20T06:27:22.299Z,969.63
2017-06-20T06:28:22.305Z,969.64
2017-06-20T06:29:22.308Z,969.7
2017-06-20T06:30:22.313Z,969.65
2017-06-20T06:31:22.316Z,969.65
2017-06-20T06:32:22.323Z,969.62
2017-06-20T06:33:22.327Z,969.62
2017-06-20T06:34:22.329Z,969.62
2017-06-20T06:35:22.335Z,969.63
2017-06-20T06:36:22.339Z,969.62
2017-06-20T06:37:22.344Z,969.66
2017-06-20T06:38:22.350Z,969.66
2017-06-20T06:39:22.354Z,969.63
2017-06-20T06:40:22.358Z,969.62
2017-06-20T06:41:22.362Z,969.58
2017-06-20T06:42:22.367Z,969.61
2017-06-20T06:43:22.371Z,969.61
2017-06-20T06:44:22.375Z,969.6
2017-06-20T06:45:22.381Z,969.56
2017-06-20T06:46:22.383Z,969.61
2017-06-20T06:47:22.389Z,969.58
2017-06-20T06:48:22.394Z,969.57
2017-06-20T06:49:22.397Z,969.57
2017-06-20T06:50:22.400Z,969.59
2017-06-20T06:51:22.406Z,969.57
2017-06-20T06:52:22.411Z,969.58
2017-06-20T06:53:22.412Z,969.58
2017-06-20T06:54:22.419Z,969.57
2017-06-20T06:55:22.423Z,969.56
2017-06-20T06:56:22.427Z,969.54
2017-06-20T06:57:22.430Z,969.56
2017-06-20T06:58:22.435Z,969.52
2017-06-20T06:59:22.437Z,969.5
2017-06-20T07:00:22.442Z,969.55
2017-06-20T07:01:22.446Z,969.52
2017-06-20T07:02:22.448Z,969.54
2017-06-20T07:03:22.452Z,969.55
2017-06-20T07:04:22.455Z,969.51
2017-06-20T07:05:22.458Z,969.57
2017-06-20T07:06:22.464Z,969.56
2017-06-20T07:07:22.466Z,969.59
2017-06-20T07:08:22.469Z,969.6
2017-06-20T07:09:22.475Z,969.57
2017-06-20T07:10:22.476Z,969.61
2017-06-20T07:11:22.479Z,969.56
2017-06-20T07:12:22.483Z,969.61
2017-06-20T07:13:22.486Z,969.59
2017-06-20T07:14:22.488Z,969.54
2017-06-20T07:15:22.492Z,969.57
2017-06-20T07:16:22.497Z,969.56
2017-06-20T07:17:22.499Z,969.58
2017-06-20T07:18:22.501Z,969.58
2017-06-20T07:19:22.504Z,969.58
2017-06-20T07:20:22.507Z,969.62
2017-06-20T07:21:22.511Z,969.6
2017-06-20T07:22:22.515Z,969.6
2017-06-20T07:23:22.517Z,969.61
2017-06-20T07:24:22.521Z,969.59
2017-06-20T07:25:22.523Z,969.56
2017-06-20T07:26:22.526Z,969.53
2017-06-20T07:27:22.528Z,969.55
2017-06-20T07:28:22.532Z,969.58
2017-06-20T07:29:22.533Z,969.57
2017-06-20T07:30:22.535Z,969.55
2017-06-20T07:31:22.538Z,969.55
2017-06-20T07:32:22.541Z,969.58
2017-06-20T07:33:22.545Z,969.55
2017-06-20T07:34:22.546Z,969.56
2017-06-20T07:35:22.549Z,969.56
2017-06-20T07:36:22.552Z,969.55
2017-06-20T07:37:22.554Z,969.52
2017-06-20T07:38:22.556Z,969.54
2017-06-20T07:39:22.558Z,969.47
2017-06-20T07:40:22.586Z,969.49
2017-06-20T07:41:22.565Z,969.5
2017-06-20T07:42:22.568Z,969.51
2017-06-20T07:43:22.570Z,969.5
2017-06-20T07:44:22.572Z,969.5
2017-06-20T07:45:22.575Z,969.49
2017-06-20T07:46:22.579Z,969.48
2017-06-20T07:47:22.581Z,969.52
2017-06-20T07:48:22.582Z,969.51
2017-06-20T07:49:22.586Z,969.49
2017-06-20T07:50:22.588Z,969.51
2017-06-20T07:51:22.589Z,969.5
2017-06-20T07:52:22.592Z,969.51
2017-06-20T07:53:22.594Z,969.53
2017-06-20T07:54:22.597Z,969.5
2017-06-20T07:55:22.600Z,969.52
2017-06-20T07:56:22.604Z,969.47
2017-06-20T07:57:22.604Z,969.45
2017-06-20T07:58:22.606Z,969.45
2017-06-20T07:59:22.608Z,969.42
2017-06-20T08:00:22.612Z,969.45
2017-06-20T08:01:22.616Z,969.43
2017-06-20T08:02:22.616Z,969.45
2017-06-20T08:03:22.620Z,969.49
2017-06-20T08:04:22.620Z,969.45
2017-06-20T08:05:22.623Z,969.48
2017-06-20T08:06:22.627Z,969.48
2017-06-20T08:07:22.627Z,969.49
2017-06-20T08:08:22.631Z,969.45
2017-06-20T08:09:22.632Z,969.47
2017-06-20T08:10:22.634Z,969.5
2017-06-20T08:11:22.640Z,969.47
2017-06-20T08:12:22.639Z,969.48
2017-06-20T08:13:22.641Z,969.46
2017-06-20T08:14:22.643Z,969.49
2017-06-20T08:15:22.646Z,969.5
2017-06-20T08:16:22.647Z,969.5
2017-06-20T08:17:22.650Z,969.5
2017-06-20T08:18:22.650Z,969.49
2017-06-20T08:19:22.655Z,969.5
2017-06-20T08:20:22.654Z,969.5
2017-06-20T08:21:22.657Z,969.5
2017-06-20T08:22:22.659Z,969.49
2017-06-20T08:23:22.661Z,969.52
2017-06-20T08:24:22.664Z,969.49
2017-06-20T08:25:22.666Z,969.45
2017-06-20T08:26:22.668Z,969.49
2017-06-20T08:27:22.669Z,969.44
2017-06-20T08:28:22.671Z,969.45
2017-06-20T08:29:22.673Z,969.49
2017-06-20T08:30:22.676Z,969.44
2017-06-20T08:31:22.678Z,969.44
2017-06-20T08:32:22.680Z,969.45
2017-06-20T08:33:22.682Z,969.47
2017-06-20T08:34:22.684Z,969.48
2017-06-20T08:35:22.683Z,969.45
2017-06-20T08:36:22.686Z,969.4
2017-06-20T08:37:22.688Z,969.38
2017-06-20T08:38:22.690Z,969.41
2017-06-20T08:39:22.693Z,969.42
2017-06-20T08:40:22.694Z,969.38
2017-06-20T08:41:22.695Z,969.36
2017-06-20T08:42:22.721Z,969.35
2017-06-20T08:43:22.701Z,969.37
2017-06-20T08:44:22.702Z,969.33
2017-06-20T08:45:22.704Z,969.35
2017-06-20T08:46:22.704Z,969.38
2017-06-20T08:47:22.706Z,969.37
2017-06-20T08:48:22.708Z,969.35
2017-06-20T08:49:22.710Z,969.34
2017-06-20T08:50:22.710Z,969.32
2017-06-20T08:51:22.713Z,969.31
2017-06-20T08:52:22.714Z,969.31
2017-06-20T08:53:22.716Z,969.33
2017-06-20T08:54:22.717Z,969.31
2017-06-20T08:55:22.720Z,969.33
2017-06-20T08:56:22.720Z,969.29
2017-06-20T08:57:22.721Z,969.3
2017-06-20T08:58:22.723Z,969.32
2017-06-20T08:59:22.727Z,969.34
2017-06-20T09:00:22.725Z,969.33
2017-06-20T09:01:22.736Z,969.3
2017-06-20T09:02:22.729Z,969.3
2017-06-20T09:03:22.730Z,969.3
2017-06-20T09:04:22.731Z,969.34
2017-06-20T09:05:22.732Z,969.28
2017-06-20T09:06:22.734Z,969.3
2017-06-20T09:07:22.737Z,969.29
2017-06-20T09:08:22.736Z,969.28
2017-06-20T09:09:22.737Z,969.34
2017-06-20T09:10:22.739Z,969.32
2017-06-20T09:11:22.739Z,969.27
2017-06-20T09:12:22.741Z,969.25
2017-06-20T09:13:22.742Z,969.28
2017-06-20T09:14:22.746Z,969.31
2017-06-20T09:15:22.743Z,969.27
2017-06-20T09:16:22.745Z,969.31
2017-06-20T09:17:22.748Z,969.3
2017-06-20T09:18:22.748Z,969.3
2017-06-20T09:19:22.751Z,969.26
2017-06-20T09:20:22.751Z,969.27
2017-06-20T09:21:22.754Z,969.31
2017-06-20T09:22:22.755Z,969.26
2017-06-20T09:23:22.755Z,969.25
2017-06-20T09:24:22.757Z,969.28
2017-06-20T09:25:22.758Z,969.29
2017-06-20T09:26:22.762Z,969.3
2017-06-20T09:27:22.760Z,969.28
2017-06-20T09:28:22.760Z,969.29
2017-06-20T09:29:22.761Z,969.29
2017-06-20T09:30:22.762Z,969.29
2017-06-20T09:31:22.764Z,969.26
2017-06-20T09:32:22.764Z,969.29
2017-06-20T09:33:22.765Z,969.22
2017-06-20T09:34:22.767Z,969.24
2017-06-20T09:35:22.766Z,969.22
2017-06-20T09:36:22.769Z,969.22
2017-06-20T09:37:22.768Z,969.21
2017-06-20T09:38:22.770Z,969.21
2017-06-20T09:39:22.770Z,969.21
2017-06-20T09:40:22.772Z,969.24
2017-06-20T09:41:22.773Z,969.19
2017-06-20T09:42:22.776Z,969.18
2017-06-20T09:43:22.777Z,969.2
2017-06-20T09:44:22.774Z,969.18
2017-06-20T09:45:22.778Z,969.2
2017-06-20T09:46:22.776Z,969.13
2017-06-20T09:47:22.780Z,969.11
2017-06-20T09:48:22.780Z,969.16
2017-06-20T09:49:22.780Z,969.14
2017-06-20T09:50:22.782Z,969.13
2017-06-20T09:51:22.782Z,969.13
2017-06-20T09:52:22.784Z,969.15
2017-06-20T09:53:22.785Z,969.14
2017-06-20T09:54:22.785Z,969.14
2017-06-20T09:55:22.786Z,969.15
2017-06-20T09:56:22.786Z,969.16
2017-06-20T09:57:22.788Z,969.11
2017-06-20T09:58:22.790Z,969.11
2017-06-20T09:59:22.790Z,969.09
2017-06-20T10:00:22.789Z,969.06
2017-06-20T10:01:22.791Z,969.06
2017-06-20T10:02:22.791Z,969.06
2017-06-20T10:03:22.790Z,969.08
2017-06-20T10:04:22.792Z,969.06
2017-06-20T10:05:22.795Z,969.03
2017-06-20T10:06:22.794Z,969.04
2017-06-20T10:07:22.796Z,969.04
2017-06-20T10:08:22.796Z,969.09
2017-06-20T10:09:22.797Z,969.07
2017-06-20T10:10:22.798Z,969.07
2017-06-20T10:11:22.798Z,969.04
2017-06-20T10:12:22.801Z,969.03
2017-06-20T10:13:22.799Z,969.04
2017-06-20T10:14:22.801Z,969.03
2017-06-20T10:15:22.801Z,969.03
2017-06-20T10:16:22.802Z,968.98
2017-06-20T10:17:22.804Z,969.01
2017-06-20T10:18:22.803Z,969.02
2017-06-20T10:19:22.804Z,969.02
2017-06-20T10:20:22.807Z,969.01
2017-06-20T10:21:22.806Z,969.02
2017-06-20T10:22:22.842Z,968.97
2017-06-20T10:23:22.807Z,968.98
2017-06-20T10:24:22.809Z,968.99
2017-06-20T10:25:22.807Z,969
2017-06-20T10:26:22.810Z,968.98
2017-06-20T10:27:22.810Z,968.95
2017-06-20T10:28:22.812Z,968.95
2017-06-20T10:29:22.813Z,968.96
2017-06-20T10:30:22.812Z,968.88
2017-06-20T10:31:22.813Z,968.92
2017-06-20T10:32:22.813Z,968.86
2017-06-20T10:33:22.813Z,968.92
2017-06-20T10:34:22.816Z,968.94
2017-06-20T10:35:22.814Z,968.9
2017-06-20T10:36:22.816Z,968.9
2017-06-20T10:37:22.815Z,968.84
2017-06-20T10:38:22.818Z,968.84
2017-06-20T10:39:22.817Z,968.83
2017-06-20T10:40:22.818Z,968.83
2017-06-20T10:41:22.820Z,968.8
2017-06-20T10:42:22.821Z,968.79
2017-06-20T10:43:22.823Z,968.76
2017-06-20T10:44:22.820Z,968.77
2017-06-20T10:45:22.822Z,968.76
2017-06-20T10:46:22.823Z,968.72
2017-06-20T10:47:22.825Z,968.72
2017-06-20T10:48:22.823Z,968.73
2017-06-20T10:49:22.825Z,968.72
2017-06-20T10:50:22.825Z,968.72
2017-06-20T10:51:22.826Z,968.73
2017-06-20T10:52:22.826Z,968.72
2017-06-20T10:53:22.827Z,968.7
2017-06-20T10:54:22.827Z,968.71
2017-06-20T10:55:22.831Z,968.7
2017-06-20T10:56:22.832Z,968.64
2017-06-20T10:57:22.831Z,968.67
2017-06-20T10:58:22.832Z,968.68
2017-06-20T10:59:22.832Z,968.63
2017-06-20T11:00:22.832Z,968.68
2017-06-20T11:01:22.834Z,968.64
2017-06-20T11:02:22.834Z,968.67
2017-06-20T11:03:22.834Z,968.65
2017-06-20T11:04:22.835Z,968.64
2017-06-20T11:05:22.833Z,968.62
2017-06-20T11:06:22.836Z,968.59
2017-06-20T11:07:22.837Z,968.58
2017-06-20T11:08:22.837Z,968.59
2017-06-20T11:09:22.836Z,968.61
2017-06-20T11:10:22.837Z,968.54
2017-06-20T11:11:22.839Z,968.57
2017-06-20T11:12:22.839Z,968.54
2017-06-20T11:13:22.841Z,968.52
2017-06-20T11:14:22.841Z,968.53
2017-06-20T11:15:22.842Z,968.52
2017-06-20T11:16:22.843Z,968.51
2017-06-20T11:17:22.841Z,968.49
2017-06-20T11:18:22.844Z,968.48
2017-06-20T11:19:22.843Z,968.49
2017-06-20T11:20:22.843Z,968.43
2017-06-20T11:21:22.845Z,968.42
2017-06-20T11:22:22.846Z,968.39
2017-06-20T11:23:22.846Z,968.4
2017-06-20T11:24:22.847Z,968.35
2017-06-20T11:25:22.848Z,968.3
2017-06-20T11:26:22.847Z,968.35
2017-06-20T11:27:22.848Z,968.33
2017-06-20T11:28:22.850Z,968.3
2017-06-20T11:29:22.850Z,968.32
2017-06-20T11:30:22.850Z,968.29
2017-06-20T11:31:22.851Z,968.27
2017-06-20T11:32:22.851Z,968.3
2017-06-20T11:33:22.851Z,968.3
2017-06-20T11:34:22.853Z,968.28
2017-06-20T11:35:22.854Z,968.31
2017-06-20T11:36:23.005Z,968.25
2017-06-20T11:37:22.855Z,968.27
2017-06-20T11:38:22.855Z,968.26
2017-06-20T11:39:22.855Z,968.24
2017-06-20T11:40:22.858Z,968.21
2017-06-20T11:41:22.856Z,968.17
2017-06-20T11:42:22.856Z,968.16
2017-06-20T11:43:22.859Z,968.13
2017-06-20T11:44:22.860Z,968.16
2017-06-20T11:45:22.860Z,968.17
2017-06-20T11:46:22.859Z,968.18
2017-06-20T11:47:22.861Z,968.18
2017-06-20T11:48:22.862Z,968.13
2017-06-20T11:49:22.861Z,968.14
2017-06-20T11:50:22.862Z,968.13
2017-06-20T11:51:22.863Z,968.12
2017-06-20T11:52:22.864Z,968.14
2017-06-20T11:53:22.863Z,968.13
2017-06-20T11:54:22.865Z,968.15
2017-06-20T11:55:22.866Z,968.09
2017-06-20T11:56:22.867Z,968.05
2017-06-20T11:57:22.868Z,968.03
2017-06-20T11:58:22.867Z,968
2017-06-20T11:59:22.866Z,967.98
2017-06-20T12:00:22.866Z,967.97
2017-06-20T12:01:22.869Z,967.9
2017-06-20T12:02:22.870Z,967.92
2017-06-20T12:03:22.869Z,967.92
2017-06-20T12:04:22.872Z,967.89
2017-06-20T12:05:22.869Z,967.91
2017-06-20T12:06:22.872Z,967.86
2017-06-20T12:07:22.875Z,967.82
2017-06-20T12:08:22.872Z,967.83
2017-06-20T12:09:22.873Z,967.83
2017-06-20T12:10:22.873Z,967.85
2017-06-20T12:11:22.874Z,967.81
2017-06-20T12:12:22.875Z,967.85
2017-06-20T12:13:22.874Z,967.81
2017-06-20T12:14:22.875Z,967.85
2017-06-20T12:15:22.875Z,967.83
2017-06-20T12:16:22.878Z,967.8
2017-06-20T12:17:22.878Z,967.83
2017-06-20T12:18:22.877Z,967.81
2017-06-20T12:19:22.879Z,967.79
2017-06-20T12:20:22.879Z,967.79
2017-06-20T12:21:22.877Z,967.78
2017-06-20T12:22:22.881Z,967.78
2017-06-20T12:23:22.880Z,967.75
2017-06-20T12:24:22.881Z,967.75
2017-06-20T12:25:22.882Z,967.72
2017-06-20T12:26:22.883Z,967.78
2017-06-20T12:27:22.884Z,967.76
2017-06-20T12:28:22.883Z,967.7
2017-06-20T12:29:22.885Z,967.74
2017-06-20T12:30:22.888Z,967.7
2017-06-20T12:31:22.888Z,967.7